Time;durP1;ratioP1;P1;durP2;ratioP2;P2;SDS_P1;SDS_P2;PMS_P1;PMS_P2;Temp;Humidity;BMP_temperature;BMP_pressure;BME280_temperature;BME280_humidity;BME280_pressure;Samples;Min_cycle;Max_cycle;Signal;HPM_P1;HPM_P2
2022/06/09 00:02:11;;;;;;;17.03;6.80;;;;;;;19.68;52.24;99908.52;123550;1104;104399;-78
2022/06/09 00:04:44;;;;;;;15.37;6.80;;;;;;;19.63;52.57;99899.67;122998;1105;104501;-79
2022/06/09 00:07:18;;;;;;;13.88;6.53;;;;;;;19.56;52.19;99905.98;122968;1105;104232;-79
2022/06/09 00:09:51;;;;;;;11.03;5.78;;;;;;;19.50;52.28;99908.70;123019;1105;104338;-79
2022/06/09 00:12:22;;;;;;;15.33;6.27;;;;;;;19.46;52.38;99904.30;122993;1104;104440;-80
2022/06/09 00:14:54;;;;;;;18.30;6.60;;;;;;;19.38;52.51;99910.59;123251;1105;104828;-79
2022/06/09 00:17:23;;;;;;;16.60;6.40;;;;;;;19.32;53.23;99908.00;123237;1105;104380;-79
2022/06/09 00:19:53;;;;;;;15.37;6.60;;;;;;;19.26;53.55;99909.81;123175;1103;104325;-80
2022/06/09 00:22:22;;;;;;;15.73;6.90;;;;;;;19.18;53.28;99909.87;122908;1105;104251;-79
2022/06/09 00:24:51;;;;;;;14.90;6.10;;;;;;;19.11;53.48;99908.19;123109;1103;104389;-79
2022/06/09 00:27:20;;;;;;;18.70;6.57;;;;;;;19.04;53.61;99908.24;123264;1105;104274;-78
2022/06/09 00:29:56;;;;;;;16.97;6.60;;;;;;;18.98;53.65;99899.41;123196;1103;104280;-79
2022/06/09 00:32:25;;;;;;;15.33;6.10;;;;;;;18.92;54.07;99911.00;122963;1105;104362;-79
2022/06/09 00:34:54;;;;;;;16.13;6.63;;;;;;;18.82;54.69;99907.50;122923;1105;104389;-79
2022/06/09 00:37:23;;;;;;;16.60;6.00;;;;;;;18.74;54.27;99896.02;122988;1105;104190;-79
2022/06/09 00:39:54;;;;;;;16.37;6.77;;;;;;;18.69;54.56;99898.72;123273;1105;104286;-80
2022/06/09 00:42:23;;;;;;;19.10;6.70;;;;;;;18.65;54.87;99893.43;123242;1105;104185;-80
2022/06/09 00:44:52;;;;;;;16.93;6.13;;;;;;;18.60;54.69;99888.15;123152;1105;104377;-79
2022/06/09 00:47:26;;;;;;;15.17;5.67;;;;;;;18.57;54.59;99888.17;123094;1105;104265;-79
2022/06/09 00:50:02;;;;;;;15.37;5.87;;;;;;;18.56;55.02;99890.84;123273;1105;104389;-79
2022/06/09 00:52:40;;;;;;;11.90;5.63;;;;;;;18.54;54.97;99890.84;123186;1105;104280;-79
2022/06/09 00:55:15;;;;;;;17.83;5.50;;;;;;;18.52;55.11;99889.11;122937;1105;104802;-79
2022/06/09 00:57:48;;;;;;;18.07;5.90;;;;;;;18.49;55.01;99896.19;123097;1105;104361;-80
2022/06/09 01:00:21;;;;;;;16.20;5.90;;;;;;;18.46;54.84;99895.34;123087;1105;104261;-78
2022/06/09 01:02:53;;;;;;;12.37;5.53;;;;;;;18.46;54.80;99895.34;123262;1105;104267;-78
2022/06/09 01:05:24;;;;;;;15.30;5.55;;;;;;;18.47;54.99;99892.67;123304;1105;104259;-78
2022/06/09 01:07:55;;;;;;;15.67;6.03;;;;;;;18.45;55.46;99893.56;123523;1104;104379;-79
2022/06/09 01:10:27;;;;;;;10.47;5.20;;;;;;;18.39;55.33;99894.50;123145;1105;104411;-79
2022/06/09 01:12:58;;;;;;;13.53;5.80;;;;;;;18.34;55.40;99898.97;123136;1105;104472;-78
2022/06/09 01:15:35;;;;;;;10.83;5.00;;;;;;;18.27;55.44;99900.75;123207;1105;104368;-78
2022/06/09 01:18:19;;;;;;;14.03;5.77;;;;;;;18.25;55.74;99901.67;123014;1105;104389;-79
2022/06/09 01:20:58;;;;;;;11.47;5.43;;;;;;;18.24;56.02;99894.58;122993;1104;104259;-79
2022/06/09 01:23:57;;;;;;;14.50;5.20;;;;;;;18.21;56.00;99895.47;123199;1105;104368;-80
2022/06/09 01:26:48;;;;;;;10.53;5.27;;;;;;;18.14;56.47;99891.10;122948;1105;104229;-79
2022/06/09 01:29:31;;;;;;;13.40;5.43;;;;;;;18.10;56.08;99892.87;123237;1105;104383;-79
2022/06/09 01:32:06;;;;;;;15.53;5.27;;;;;;;18.09;56.50;99892.88;123383;1105;104268;-79
2022/06/09 01:34:43;;;;;;;13.30;5.40;;;;;;;18.04;56.60;99890.23;123485;1105;104328;-78
2022/06/09 01:37:16;;;;;;;13.73;5.57;;;;;;;18.01;56.92;99886.73;123169;1105;104264;-80
2022/06/09 01:39:48;;;;;;;13.97;5.47;;;;;;;17.98;56.63;99889.39;123031;1105;104312;-78
2022/06/09 01:42:31;;;;;;;12.50;5.70;;;;;;;17.94;56.91;99884.10;123001;1105;104284;-79
2022/06/09 01:45:05;;;;;;;10.90;5.60;;;;;;;17.92;57.18;99888.55;123085;1104;105823;-80
2022/06/09 01:47:46;;;;;;;9.50;4.87;;;;;;;17.90;57.11;99887.67;123201;1104;104264;-79
2022/06/09 01:50:23;;;;;;;11.43;5.03;;;;;;;17.86;57.54;99880.57;123467;1102;104478;-79
2022/06/09 01:52:54;;;;;;;9.13;4.60;;;;;;;17.82;57.73;99886.77;123401;1105;104336;-79
2022/06/09 01:55:25;;;;;;;8.90;4.83;;;;;;;17.77;57.99;99885.91;123304;1105;104629;-80
2022/06/09 01:57:58;;;;;;;9.85;5.25;;;;;;;17.71;57.95;99896.55;123065;1105;104404;-79
2022/06/09 02:00:28;;;;;;;14.18;5.90;;;;;;;17.65;58.64;99891.25;123314;1105;104425;-78
2022/06/09 02:03:03;;;;;;;13.70;5.20;;;;;;;17.59;58.52;99890.39;123136;1105;104325;-79
2022/06/09 02:05:37;;;;;;;12.63;5.23;;;;;;;17.52;59.44;99891.28;123086;1105;104277;-79
2022/06/09 02:08:09;;;;;;;12.63;5.07;;;;;;;17.46;59.14;99882.47;123063;1105;104687;-79
2022/06/09 02:10:40;;;;;;;15.37;5.13;;;;;;;17.41;59.27;99890.44;123040;1106;104341;-79
2022/06/09 02:13:13;;;;;;;12.83;5.10;;;;;;;17.36;59.21;99886.92;123225;1105;104370;-79
2022/06/09 02:15:45;;;;;;;11.90;5.47;;;;;;;17.32;59.55;99890.45;123200;1105;104399;-79
2022/06/09 02:18:19;;;;;;;10.37;5.03;;;;;;;17.25;60.00;99885.16;123171;1105;104392;-79
2022/06/09 02:20:52;;;;;;;;;;;;;;;17.17;60.53;99878.98;123325;1105;104313;-79
2022/06/09 02:23:21;;;;;;;10.00;5.10;;;;;;;17.14;60.98;99886.04;123312;1103;104380;-79
2022/06/09 02:25:50;;;;;;;10.75;5.65;;;;;;;17.12;60.60;99890.47;123385;1104;104268;-78
2022/06/09 02:28:19;;;;;;;11.13;4.90;;;;;;;17.09;60.42;99888.69;123033;1105;104268;-79
2022/06/09 02:30:49;;;;;;;10.13;5.33;;;;;;;17.07;60.91;99882.52;122842;1106;104290;-79
2022/06/09 02:33:18;;;;;;;12.23;5.23;;;;;;;17.03;61.12;99889.59;123123;1105;104437;-79
2022/06/09 02:35:46;;;;;;;11.45;5.20;;;;;;;16.99;61.35;99882.52;123142;1102;104383;-79
2022/06/09 02:38:15;;;;;;;11.33;4.83;;;;;;;16.98;61.95;99883.39;123401;1105;104648;-79
2022/06/09 02:40:44;;;;;;;9.83;5.00;;;;;;;16.97;62.02;99884.30;123037;1105;104405;-78
2022/06/09 02:43:13;;;;;;;8.33;4.80;;;;;;;16.93;62.17;99885.17;123124;1102;104296;-77
2022/06/09 02:45:42;;;;;;;13.00;4.83;;;;;;;16.93;62.04;99892.25;123192;1105;109157;-78
2022/06/09 02:48:12;;;;;;;12.53;5.33;;;;;;;16.91;62.55;99893.99;123151;1105;104376;-78
2022/06/09 02:50:41;;;;;;;11.65;5.35;;;;;;;16.88;62.12;99900.20;123127;1105;104627;-79
2022/06/09 02:53:10;;;;;;;9.60;5.10;;;;;;;16.89;62.50;99897.55;123120;1105;104418;-78
2022/06/09 02:55:39;;;;;;;9.17;4.70;;;;;;;16.87;62.74;99886.05;123362;1102;104214;-79
2022/06/09 02:58:09;;;;;;;9.37;4.37;;;;;;;16.87;62.49;99890.47;123022;1102;104377;-79
2022/06/09 03:00:37;;;;;;;11.67;4.80;;;;;;;16.87;62.73;99896.64;123217;1103;104387;-79
2022/06/09 03:03:10;;;;;;;10.60;4.80;;;;;;;16.91;62.38;99904.59;122961;1105;104316;-79
2022/06/09 03:05:40;;;;;;;9.10;4.85;;;;;;;16.94;62.31;99901.95;122968;1105;104239;-80
2022/06/09 03:08:09;;;;;;;11.20;4.83;;;;;;;16.95;61.94;99888.70;123108;1105;104370;-78
2022/06/09 03:10:39;;;;;;;9.57;4.90;;;;;;;16.99;61.75;99903.72;122960;1106;104403;-79
2022/06/09 03:13:07;;;;;;;8.43;4.83;;;;;;;17.03;61.82;99902.85;123370;1105;104274;-79
2022/06/09 03:15:36;;;;;;;11.23;5.23;;;;;;;17.02;62.16;99898.42;123151;1105;104310;-79
2022/06/09 03:18:05;;;;;;;12.10;5.50;;;;;;;17.02;61.99;99897.55;123604;1105;104508;-80
2022/06/09 03:20:34;;;;;;;7.77;4.40;;;;;;;17.03;62.45;99905.50;123619;1105;104389;-79
2022/06/09 03:23:06;;;;;;;14.17;4.90;;;;;;;17.07;62.08;99901.95;123888;1105;104300;-79
2022/06/09 03:25:34;;;;;;;10.90;4.83;;;;;;;17.11;62.12;99900.20;123512;1105;104501;-79
2022/06/09 03:28:04;;;;;;;10.67;4.80;;;;;;;17.20;62.45;99908.15;123525;1105;104351;-79
2022/06/09 03:30:33;;;;;;;10.23;5.07;;;;;;;17.26;62.60;99901.94;123232;1103;104377;-79
2022/06/09 03:33:02;;;;;;;13.35;4.75;;;;;;;17.29;61.87;99903.71;123206;1105;104690;-79
2022/06/09 03:35:33;;;;;;;11.70;5.00;;;;;;;17.34;62.47;99909.88;123292;1105;104227;-79
2022/06/09 03:38:02;;;;;;;9.77;4.80;;;;;;;17.41;62.05;99904.56;123210;1105;104321;-79
2022/06/09 03:40:31;;;;;;;10.80;4.90;;;;;;;17.48;62.42;99908.08;123338;1105;104433;-79
2022/06/09 03:43:02;;;;;;;19.55;5.20;;;;;;;17.53;62.22;99906.33;123697;1105;104351;-80
2022/06/09 03:45:32;;;;;;;11.90;4.50;;;;;;;17.60;62.59;99907.19;123620;1105;104450;-79
2022/06/09 03:48:01;;;;;;;10.73;5.10;;;;;;;17.69;62.26;99916.91;123525;1105;104456;-79
2022/06/09 03:50:32;;;;;;;10.47;4.83;;;;;;;17.79;61.85;99921.27;124290;1105;104303;-79
2022/06/09 03:53:01;;;;;;;17.03;5.17;;;;;;;17.88;62.20;99913.31;123912;1105;104452;-78
2022/06/09 03:55:31;;;;;;;12.40;5.33;;;;;;;18.00;62.30;99923.02;124724;1105;104670;-78
2022/06/09 03:58:00;;;;;;;11.37;5.23;;;;;;;18.12;61.96;99919.41;124275;1105;104289;-78
2022/06/09 04:00:32;;;;;;;10.53;4.50;;;;;;;18.21;62.04;99923.81;124999;1105;104280;-79
2022/06/09 04:03:04;;;;;;;11.67;5.03;;;;;;;18.27;62.03;99906.06;124824;1105;104254;-80
2022/06/09 04:05:39;;;;;;;10.07;4.73;;;;;;;18.35;61.71;99913.12;125039;1105;104182;-79
2022/06/09 04:08:12;;;;;;;12.00;5.20;;;;;;;18.39;61.69;99917.53;124982;1105;104152;-79
2022/06/09 04:10:55;;;;;;;14.43;5.37;;;;;;;18.45;61.72;99909.50;125701;1105;104297;-77
2022/06/09 04:13:24;;;;;;;9.68;4.97;;;;;;;18.50;61.96;99903.28;124643;1105;104306;-77
2022/06/09 04:15:53;;;;;;;13.57;4.90;;;;;;;18.58;61.49;99899.70;123709;1105;104409;-78
2022/06/09 04:18:22;;;;;;;13.00;5.37;;;;;;;18.63;61.36;99903.20;123040;1105;104351;-77
2022/06/09 04:20:51;;;;;;;12.63;5.30;;;;;;;18.69;61.63;99904.03;123068;1105;104408;-77
2022/06/09 04:23:20;;;;;;;11.20;5.20;;;;;;;18.76;61.24;99911.95;123074;1104;104251;-78
2022/06/09 04:25:48;;;;;;;13.67;5.93;;;;;;;18.79;61.05;99914.59;123166;1105;104358;-77
2022/06/09 04:28:18;;;;;;;16.30;5.90;;;;;;;18.82;61.11;99910.16;123200;1105;104344;-78
2022/06/09 04:30:48;;;;;;;12.90;5.47;;;;;;;18.88;60.96;99911.03;123312;1105;104315;-77
2022/06/09 04:33:16;;;;;;;19.07;6.13;;;;;;;18.92;61.20;99913.66;123261;1103;105773;-77
2022/06/09 04:35:45;;;;;;;17.13;6.40;;;;;;;18.99;60.89;99903.84;123437;1105;104310;-78
2022/06/09 04:38:17;;;;;;;15.63;6.43;;;;;;;19.05;60.80;99901.14;123179;1102;104304;-78
2022/06/09 04:40:46;;;;;;;14.15;6.05;;;;;;;19.12;60.70;99893.98;123385;1102;104249;-77
2022/06/09 04:43:14;;;;;;;10.83;5.10;;;;;;;19.17;60.37;99906.34;123261;1105;104330;-77
2022/06/09 04:45:44;;;;;;;12.53;5.77;;;;;;;19.24;60.17;99895.66;123827;1105;104012;-77
2022/06/09 04:48:13;;;;;;;12.77;5.60;;;;;;;19.30;60.01;99896.47;123295;1105;104220;-77
2022/06/09 04:50:42;;;;;;;14.87;5.77;;;;;;;19.36;60.55;99895.54;123435;1104;105000;-78
2022/06/09 04:53:11;;;;;;;13.03;5.90;;;;;;;19.47;59.67;99903.41;123150;1105;104233;-77
2022/06/09 04:55:43;;;;;;;12.80;5.90;;;;;;;19.54;60.15;99900.67;123387;1105;104181;-77
2022/06/09 04:58:12;;;;;;;16.40;6.43;;;;;;;19.62;60.46;99897.03;123932;1105;107911;-77
2022/06/09 05:00:41;;;;;;;14.20;6.07;;;;;;;19.72;59.95;99894.25;123430;1103;104650;-77
2022/06/09 05:03:12;;;;;;;14.57;6.17;;;;;;;19.83;60.20;99894.16;123377;1102;104288;-77
2022/06/09 05:05:43;;;;;;;12.85;5.90;;;;;;;19.91;60.03;99902.05;123403;1102;104321;-77
2022/06/09 05:08:13;;;;;;;17.40;5.90;;;;;;;20.02;58.87;99904.59;123285;1105;104261;-77
2022/06/09 05:10:42;;;;;;;15.53;5.70;;;;;;;20.11;58.90;99910.67;123464;1105;104313;-78
2022/06/09 05:13:12;;;;;;;14.63;6.07;;;;;;;20.19;59.39;99913.23;123594;1105;104316;-78
2022/06/09 05:15:48;;;;;;;15.80;5.80;;;;;;;20.27;58.47;99913.13;123571;1105;104300;-77
2022/06/09 05:18:18;;;;;;;17.90;6.10;;;;;;;20.34;58.31;99909.50;123759;1103;104383;-78
2022/06/09 05:20:48;;;;;;;16.43;5.90;;;;;;;20.42;59.19;99912.92;123899;1105;104233;-77
2022/06/09 05:23:18;;;;;;;17.90;6.35;;;;;;;20.50;58.37;99906.62;123816;1103;104220;-78
2022/06/09 05:25:53;;;;;;;15.50;6.43;;;;;;;20.66;58.51;99905.50;123752;1106;104248;-78
2022/06/09 05:28:28;;;;;;;16.73;6.63;;;;;;;20.81;58.11;99894.60;124339;1102;104313;-78
2022/06/09 05:30:58;;;;;;;14.93;6.33;;;;;;;20.98;58.37;99904.13;124669;1105;104230;-78
2022/06/09 05:33:29;;;;;;;18.27;6.40;;;;;;;21.13;58.08;99908.30;123716;1105;102963;-79
2022/06/09 05:36:00;;;;;;;12.05;5.95;;;;;;;21.24;57.00;99898.35;123666;1105;104178;-78
2022/06/09 05:47:00;;;;;;;15.23;6.70;;;;;;;21.53;55.34;99911.20;124034;1106;104319;-78
2022/06/09 05:49:30;;;;;;;15.53;6.50;;;;;;;21.64;55.45;99915.44;125995;1104;107183;-79
2022/06/09 05:52:05;;;;;;;14.40;6.37;;;;;;;21.68;55.20;99917.16;124533;1105;102782;-80
2022/06/09 05:54:37;;;;;;;19.00;6.47;;;;;;;21.73;55.34;99910.79;124185;1105;104216;-79
2022/06/09 05:57:14;;;;;;;16.30;6.87;;;;;;;21.82;55.70;99912.41;124007;1105;104229;-79
2022/06/09 06:00:12;;;;;;;16.47;6.57;;;;;;;21.93;54.58;99906.86;125005;1105;117012;-78
2022/06/09 06:02:45;;;;;;;14.73;6.47;;;;;;;22.05;54.63;99895.05;125002;1105;104242;-80
2022/06/09 06:08:06;;;;;;;17.40;7.13;;;;;;;22.20;54.06;99886.67;125081;1102;104251;-79
2022/06/09 06:10:38;;;;;;;16.23;6.70;;;;;;;22.30;54.15;99891.81;124176;1105;102921;-80
2022/06/09 06:13:16;;;;;;;16.47;6.47;;;;;;;22.36;54.02;99881.92;125052;1102;104134;-79
2022/06/09 06:15:59;;;;;;;20.37;6.53;;;;;;;22.46;53.32;99887.93;125263;1103;103441;-79
2022/06/09 06:18:32;;;;;;;12.73;6.50;;;;;;;22.55;53.31;99882.38;124737;1105;104208;-77
2022/06/09 06:21:19;;;;;;;15.63;6.70;;;;;;;22.61;53.50;99882.23;124129;1105;102476;-79
2022/06/09 06:23:57;;;;;;;17.70;7.00;;;;;;;22.64;52.60;99883.97;124812;1105;102530;-77
2022/06/09 06:26:50;;;;;;;16.35;7.20;;;;;;;22.74;52.33;99874.78;123988;1105;104201;-79
2022/06/09 06:32:38;;;;;;;14.40;6.40;;;;;;;23.06;52.36;99882.91;124838;1105;104290;-79
2022/06/09 06:35:27;;;;;;;12.20;6.50;;;;;;;23.24;52.06;99884.28;123782;1105;104370;-78
2022/06/09 06:37:58;;;;;;;19.70;7.23;;;;;;;23.43;52.10;99884.66;123883;1106;104431;-78
2022/06/09 06:40:27;;;;;;;15.97;6.33;;;;;;;23.54;51.41;99885.24;124685;1105;119926;-77
2022/06/09 06:42:59;;;;;;;19.27;6.67;;;;;;;23.63;51.19;99882.31;124045;1106;103028;-78
2022/06/09 06:45:29;;;;;;;17.70;6.80;;;;;;;23.72;50.75;99878.51;124071;1105;103382;-79
2022/06/09 06:47:58;;;;;;;19.77;7.20;;;;;;;23.80;50.53;99880.97;123688;1105;104380;-79
2022/06/09 06:50:47;;;;;;;19.07;6.87;;;;;;;23.91;50.87;99878.02;124099;1105;104249;-77
2022/06/09 06:53:18;;;;;;;18.03;7.03;;;;;;;24.01;50.50;99871.44;124207;1105;104294;-77
2022/06/09 06:55:56;;;;;;;15.67;6.57;;;;;;;24.11;49.84;99880.98;123895;1105;102229;-79
2022/06/09 06:58:28;;;;;;;16.77;6.77;;;;;;;24.21;50.35;99868.16;124018;1105;104345;-77
2022/06/09 07:01:00;;;;;;;19.00;7.03;;;;;;;24.35;49.59;99868.61;124048;1105;109402;-80
2022/06/09 07:03:46;;;;;;;14.83;6.60;;;;;;;24.49;49.71;99873.54;125894;1105;102195;-79
2022/06/09 07:06:16;;;;;;;17.33;6.30;;;;;;;24.63;49.28;99864.22;125651;1105;103279;-79
2022/06/09 07:08:46;;;;;;;18.17;6.63;;;;;;;24.76;49.19;99871.82;123975;1106;104222;-78
2022/06/09 07:11:20;;;;;;;19.43;6.90;;;;;;;24.90;49.05;99865.09;124149;1105;102858;-79
2022/06/09 07:13:55;;;;;;;15.00;6.37;;;;;;;25.04;48.29;99868.22;124303;1103;103441;-79
2022/06/09 07:16:37;;;;;;;19.07;6.27;;;;;;;25.25;48.67;99861.20;124220;1102;103668;-78
2022/06/09 07:19:07;;;;;;;13.83;5.60;;;;;;;25.45;48.27;99868.59;124091;1103;104335;-80
2022/06/09 07:21:42;;;;;;;15.73;5.67;;;;;;;25.63;47.13;99863.48;123828;1105;108246;-78
2022/06/09 07:24:12;;;;;;;11.95;5.35;;;;;;;25.79;46.81;99864.68;124091;1106;104502;-76
2022/06/09 07:26:44;;;;;;;14.07;5.50;;;;;;;25.99;46.51;99863.06;123988;1105;104436;-80
2022/06/09 07:29:16;;;;;;;13.53;5.03;;;;;;;26.17;45.79;99866.87;125879;1104;102583;-79
2022/06/09 07:31:56;;;;;;;11.30;4.77;;;;;;;26.35;45.34;99865.25;125845;1105;103169;-81
2022/06/09 07:34:25;;;;;;;11.77;4.80;;;;;;;26.51;44.37;99869.09;125915;1105;102909;-79
2022/06/09 07:37:22;;;;;;;8.77;5.03;;;;;;;26.71;44.45;99862.07;124781;1105;104341;-79
2022/06/09 07:40:23;;;;;;;10.07;4.23;;;;;;;26.94;44.60;99861.08;124254;1106;104214;-81
2022/06/09 07:43:08;;;;;;;9.10;4.23;;;;;;;27.16;43.21;99860.17;124193;1105;104425;-79
2022/06/09 07:45:50;;;;;;;8.50;3.47;;;;;;;27.36;41.00;99862.93;123995;1106;104872;-78
2022/06/09 07:48:25;;;;;;;6.30;3.03;;;;;;;27.58;41.70;99865.54;123889;1105;104234;-80
2022/06/09 07:51:33;;;;;;;8.40;3.50;;;;;;;27.76;39.95;99861.12;124275;1105;103100;-78
2022/06/09 07:54:27;;;;;;;5.83;3.00;;;;;;;27.92;39.53;99863.97;124180;1105;104226;-78
2022/06/09 07:57:07;;;;;;;18.80;7.93;;;;;;;28.08;39.40;99852.50;125108;1105;102973;-79
2022/06/09 07:59:48;;;;;;;29.42;21.90;;;;;;;28.25;38.97;99841.81;124221;1105;104262;-80
2022/06/09 08:02:44;;;;;;;6.03;3.20;;;;;;;28.43;38.22;99852.66;125109;1105;108199;-80
2022/06/09 08:06:05;;;;;;;7.70;3.07;;;;;;;28.63;38.53;99849.02;125932;1105;102810;-81
2022/06/09 08:08:40;;;;;;;5.87;2.90;;;;;;;28.79;36.35;99841.02;124794;1109;104169;-81
2022/06/09 08:11:13;;;;;;;10.13;3.17;;;;;;;28.90;37.17;99838.64;125062;1105;105755;-79
2022/06/09 08:14:12;;;;;;;5.90;3.33;;;;;;;29.01;35.90;99841.66;124391;1105;104184;-79
2022/06/09 08:17:11;;;;;;;7.47;3.13;;;;;;;29.19;35.97;99841.67;124216;1104;102192;-81
2022/06/09 08:20:05;;;;;;;;;;;;;;;;;;;;;
2022/06/09 08:22:35;;;;;;;14.60;4.12;;;;;;;29.52;35.57;99824.66;124287;1102;104175;-80
2022/06/09 08:25:17;;;;;;;9.10;3.20;;;;;;;29.55;35.33;99838.02;124346;1105;104202;-79
2022/06/09 08:27:57;;;;;;;7.17;3.13;;;;;;;29.43;33.85;99822.45;124253;1102;102658;-80
2022/06/09 08:30:46;;;;;;;4.03;3.10;;;;;;;29.40;34.35;99820.78;124292;1105;102254;-80
2022/06/09 08:33:18;;;;;;;13.90;5.37;;;;;;;29.52;34.09;99827.36;124087;1105;103226;-79
2022/06/09 08:35:59;;;;;;;8.27;3.63;;;;;;;29.54;33.48;99825.44;124044;1105;104232;-79
2022/06/09 08:38:30;;;;;;;8.87;3.30;;;;;;;29.80;33.54;99832.17;124152;1106;104261;-78
2022/06/09 08:41:08;;;;;;;6.20;3.20;;;;;;;29.94;34.18;99834.12;124123;1105;104226;-79
2022/06/09 08:44:04;;;;;;;7.47;3.73;;;;;;;29.78;32.94;99828.66;125564;1102;107454;-80
2022/06/09 08:47:05;;;;;;;11.00;3.63;;;;;;;29.82;33.01;99826.69;124137;1105;104239;-79
2022/06/09 08:50:04;;;;;;;7.20;3.73;;;;;;;30.01;33.12;99822.02;124059;1106;104284;-82
2022/06/09 08:53:09;;;;;;;7.53;3.53;;;;;;;30.05;32.56;99810.04;124495;1105;104191;-78
2022/06/09 08:55:50;;;;;;;6.93;3.70;;;;;;;30.10;32.42;99809.78;125980;1104;103031;-79
2022/06/09 08:58:28;;;;;;;7.37;3.42;;;;;;;30.21;31.70;99820.86;125272;1104;103240;-80
2022/06/09 09:01:24;;;;;;;16.17;3.70;;;;;;;30.43;31.71;99809.73;124088;1106;104251;-78
2022/06/09 09:04:07;;;;;;;12.43;3.93;;;;;;;30.59;31.08;99820.53;124352;1105;104248;-80
2022/06/09 09:06:50;;;;;;;15.37;4.50;;;;;;;30.45;30.70;99820.47;125867;1102;102516;-81
2022/06/09 09:09:35;;;;;;;5.83;3.50;;;;;;;30.21;29.65;99810.03;124287;1105;104331;-80
2022/06/09 09:12:18;;;;;;;11.20;4.60;;;;;;;30.17;30.52;99822.02;124133;1105;104290;-79
2022/06/09 09:15:40;;;;;;;;;;;;;;;;;;;;;
2022/06/09 09:18:30;;;;;;;8.23;3.70;;;;;;;30.25;30.42;99816.17;125245;1105;102674;-80
2022/06/09 09:21:24;;;;;;;6.93;3.83;;;;;;;30.42;29.90;99810.69;124986;1105;104227;-78
2022/06/09 09:24:06;;;;;;;8.00;3.90;;;;;;;30.58;29.31;99813.36;124193;1106;104029;-81
2022/06/09 09:26:52;;;;;;;8.03;3.83;;;;;;;30.67;29.78;99813.78;125004;1106;102911;-81
2022/06/09 09:29:33;;;;;;;8.07;4.17;;;;;;;30.74;29.54;99813.33;124395;1105;104189;-80
2022/06/09 09:32:16;;;;;;;8.87;3.93;;;;;;;30.88;28.65;99815.22;124355;1105;104188;-80
2022/06/09 09:35:15;;;;;;;7.27;3.80;;;;;;;31.07;28.25;99815.04;125752;1105;101946;-81
2022/06/09 09:38:02;;;;;;;5.93;3.60;;;;;;;31.25;28.66;99809.45;125894;1105;102508;-81
2022/06/09 09:40:39;;;;;;;10.13;4.63;;;;;;;31.31;28.01;99814.50;125712;1105;102497;-80
2022/06/09 09:43:12;;;;;;;10.37;4.43;;;;;;;31.36;28.20;99798.81;125494;1105;104276;-81
2022/06/09 09:45:52;;;;;;;10.97;4.27;;;;;;;31.12;27.36;99815.63;125211;1106;104210;-82
2022/06/09 09:48:49;;;;;;;14.23;4.30;;;;;;;31.00;27.32;99817.22;125879;1105;103280;-81
2022/06/09 09:51:39;;;;;;;8.83;4.10;;;;;;;30.94;27.06;99813.98;125863;1105;103060;-81
2022/06/09 09:54:32;;;;;;;13.20;3.90;;;;;;;31.10;27.08;99801.28;125819;1104;102451;-80
2022/06/09 09:57:35;;;;;;;;;;;;;;;;;;;;;
2022/06/09 10:00:30;;;;;;;11.33;4.00;;;;;;;31.21;27.01;99825.01;125062;1105;102972;-79
2022/06/09 10:09:30;;;;;;;8.65;4.10;;;;;;;31.24;26.82;99818.54;123914;1105;104467;-80
2022/06/09 10:12:16;;;;;;;9.17;4.10;;;;;;;31.04;26.34;99803.49;124075;1105;104185;-80
2022/06/09 10:14:52;;;;;;;8.60;3.80;;;;;;;30.76;25.64;99806.00;124820;1104;102602;-80
2022/06/09 10:17:29;;;;;;;9.40;3.90;;;;;;;30.54;25.85;99800.09;124264;1106;104290;-83
2022/06/09 10:20:18;;;;;;;6.83;3.70;;;;;;;30.46;25.24;99805.95;126150;1103;102353;-81
2022/06/09 10:22:59;;;;;;;12.17;4.67;;;;;;;30.56;25.91;99784.62;125193;1105;102784;-81
2022/06/09 10:25:47;;;;;;;7.97;3.80;;;;;;;30.73;26.06;99789.05;125300;1102;104323;-80
2022/06/09 10:28:30;;;;;;;11.80;4.03;;;;;;;30.73;25.77;99773.70;125286;1103;103007;-82
2022/06/09 10:31:12;;;;;;;11.63;3.73;;;;;;;30.80;24.09;99790.44;125233;1105;104223;-84
2022/06/09 10:33:51;;;;;;;4.90;3.30;;;;;;;30.76;23.74;99787.05;125103;1105;103238;-81
2022/06/09 10:36:24;;;;;;;6.60;2.83;;;;;;;30.91;24.55;99778.96;125218;1105;104175;-81
2022/06/09 10:39:04;;;;;;;11.87;3.30;;;;;;;31.07;24.63;99777.11;125290;1105;103290;-80
2022/06/09 10:41:49;;;;;;;6.77;3.50;;;;;;;31.08;24.22;99772.55;125113;1105;102548;-81
2022/06/09 10:44:26;;;;;;;5.73;3.20;;;;;;;31.22;24.08;99763.58;125080;1105;104306;-81
2022/06/09 10:57:01;;;;;;;9.10;2.90;;;;;;;30.96;23.59;99757.87;125060;1105;104947;-81
2022/06/09 11:00:09;;;;;;;8.33;3.17;;;;;;;30.92;23.55;99757.20;125053;1106;104137;-79
2022/06/09 11:07:35;;;;;;;;;;;;;;;;;;;;;
2022/06/09 11:11:07;;;;;;;7.57;2.73;;;;;;;30.51;23.87;99744.33;124837;1109;103670;-81
2022/06/09 11:14:17;;;;;;;6.73;2.70;;;;;;;30.42;23.95;99744.88;124992;1109;102943;-78
2022/06/09 11:17:17;;;;;;;7.63;2.90;;;;;;;30.43;24.26;99744.78;124872;1109;102837;-79
2022/06/09 11:20:29;;;;;;;6.53;2.47;;;;;;;30.54;24.14;99746.86;124590;1109;104133;-81
2022/06/09 11:23:53;;;;;;;5.57;2.60;;;;;;;30.60;24.18;99749.16;125148;1108;102677;-79
2022/06/09 11:27:15;;;;;;;7.73;2.87;;;;;;;30.68;24.56;99743.29;125071;1109;103080;-80
2022/06/09 11:31:01;;;;;;;;;;;;;;;;;;;;;
2022/06/09 11:41:38;;;;;;;4.37;2.73;;;;;;;31.37;24.44;99730.09;124367;1105;104093;-80
2022/06/09 11:45:03;;;;;;;6.43;2.63;;;;;;;31.43;24.82;99732.42;125052;1109;104052;-82
2022/06/09 11:48:12;;;;;;;5.63;2.70;;;;;;;31.42;25.03;99733.38;125129;1109;102921;-79
2022/06/09 11:51:21;;;;;;;6.20;2.90;;;;;;;31.40;25.24;99746.17;124800;1109;103177;-82
2022/06/09 11:54:51;;;;;;;9.17;2.70;;;;;;;31.35;25.06;99746.45;124682;1109;102639;-79
2022/06/09 11:57:46;;;;;;;3.37;2.60;;;;;;;31.34;24.56;99741.13;124723;1109;104220;-80
2022/06/09 12:00:55;;;;;;;6.03;2.58;;;;;;;31.44;24.82;99723.30;124782;1105;104227;-80
2022/06/09 12:03:55;;;;;;;9.17;2.70;;;;;;;31.64;24.78;99729.34;124821;1109;102471;-79
2022/06/09 12:06:56;;;;;;;6.20;2.33;;;;;;;31.79;24.67;99733.77;125135;1105;103607;-81
2022/06/09 12:09:49;;;;;;;4.33;2.77;;;;;;;31.92;24.59;99735.69;124699;1112;104296;-82
2022/06/09 12:17:21;;;;;;;4.30;2.85;;;;;;;31.93;24.47;99719.31;124451;1115;102984;-79
2022/06/09 12:24:23;;;;;;;4.87;2.47;;;;;;;31.67;24.49;99721.00;124322;1115;104156;-79
2022/06/09 12:27:40;;;;;;;8.53;2.60;;;;;;;31.45;24.55;99718.77;124371;1115;104281;-78
2022/06/09 12:30:39;;;;;;;8.53;3.03;;;;;;;31.33;25.05;99720.41;124334;1114;102578;-78
2022/06/09 12:33:33;;;;;;;7.77;2.80;;;;;;;31.20;24.82;99725.73;124461;1115;104194;-80
2022/06/09 12:36:14;;;;;;;7.70;2.70;;;;;;;31.16;25.03;99722.33;125124;1112;103033;-78
2022/06/09 12:38:58;;;;;;;;;;;;;;;31.10;24.76;99717.28;124844;1112;103723;-80
2022/06/09 12:42:04;;;;;;;6.47;2.90;;;;;;;31.23;25.08;99716.52;124901;1109;103609;-80
2022/06/09 12:48:08;;;;;;;;;;;;;;;31.45;24.97;99708.79;125290;1106;104239;-81
2022/06/09 12:54:26;;;;;;;;;;;;;;;30.81;25.18;99711.81;124827;1109;102410;-80
2022/06/09 12:57:38;;;;;;;;;;;;;;;30.78;25.18;99708.43;125170;1109;104033;-79
2022/06/09 13:00:26;;;;;;;;;;;;;;;30.71;25.44;99710.62;124955;1109;104296;-81
2022/06/09 13:03:52;;;;;;;;;;;;;;;;;;;;;
2022/06/09 13:06:56;;;;;;;;;;;;;;;30.66;25.84;99723.57;124851;1112;110181;-79
2022/06/09 13:13:11;;;;;;;;;;;;;;;;;;;;;
2022/06/09 13:20:02;;;;;;;;;;;;;;;;;;;;;
2022/06/09 13:23:14;;;;;;;;;;;;;;;30.61;25.92;99722.98;124645;1115;104204;-80
2022/06/09 13:29:24;;;;;;;;;;;;;;;30.76;25.58;99713.94;124242;1112;112991;-81
2022/06/09 13:32:19;;;;;;;;;;;;;;;30.78;25.81;99712.00;124479;1112;104242;-81
2022/06/09 13:35:15;;;;;;;;;;;;;;;30.88;25.67;99706.02;124981;1112;102991;-81